createdAt,value
2023-05-03T00:02:05.437Z,98368.22
2023-05-03T00:04:32.347Z,98370.34
2023-05-03T00:06:59.184Z,98366.00
2023-05-03T00:09:26.017Z,98367.16
2023-05-03T00:11:53.716Z,98364.31
2023-05-03T00:14:20.648Z,98369.37
2023-05-03T00:16:47.756Z,98362.72
2023-05-03T00:19:24.189Z,98362.41
2023-05-03T00:21:57.708Z,98369.72
2023-05-03T00:24:24.564Z,98365.69
2023-05-03T00:26:51.422Z,98371.38
2023-05-03T00:29:21.301Z,98364.44
2023-05-03T00:31:48.173Z,98358.31
2023-05-03T00:34:15.147Z,98352.78
2023-05-03T00:36:42.103Z,98359.53
2023-05-03T00:39:09.953Z,98358.50
2023-05-03T00:41:36.808Z,98347.69
2023-05-03T00:44:03.738Z,98342.78
2023-05-03T00:46:30.999Z,98344.59
2023-05-03T00:48:58.035Z,98344.69
2023-05-03T00:51:27.866Z,98344.50
2023-05-03T00:53:54.739Z,98344.88
2023-05-03T00:56:23.023Z,98348.13
2023-05-03T00:58:52.025Z,98352.19
2023-05-03T01:01:19.376Z,98348.72
2023-05-03T01:03:46.671Z,98352.13
2023-05-03T01:06:27.920Z,98345.06
2023-05-03T01:09:18.629Z,98347.41
2023-05-03T01:11:59.603Z,98348.06
2023-05-03T01:14:51.270Z,98346.63
2023-05-03T01:17:18.587Z,98348.97
2023-05-03T01:19:49.256Z,98349.56
2023-05-03T01:22:44.359Z,98346.94
2023-05-03T01:25:15.337Z,98345.38
2023-05-03T01:27:42.868Z,98346.03
2023-05-03T01:30:11.532Z,98345.19
2023-05-03T01:33:04.427Z,98348.59
2023-05-03T01:35:34.320Z,98356.53
2023-05-03T01:38:01.321Z,98345.19
2023-05-03T01:40:29.796Z,98355.44
2023-05-03T01:42:57.667Z,98347.41
2023-05-03T01:45:25.684Z,98348.97
2023-05-03T01:47:52.544Z,98351.50
2023-05-03T01:50:19.424Z,98342.00
2023-05-03T01:52:46.258Z,98349.09
2023-05-03T01:55:13.111Z,98349.44
2023-05-03T01:57:39.994Z,98346.41
2023-05-03T02:00:07.438Z,98349.38
2023-05-03T02:02:34.252Z,98351.19
2023-05-03T02:05:01.214Z,98342.72
2023-05-03T02:07:28.037Z,98338.50
2023-05-03T02:09:55.055Z,98341.97
2023-05-03T02:12:22.016Z,98337.59
2023-05-03T02:14:48.819Z,98332.50
2023-05-03T02:17:17.372Z,98343.16
2023-05-03T02:19:44.498Z,98342.03
2023-05-03T02:22:11.350Z,98331.22
2023-05-03T02:24:40.172Z,98336.59
2023-05-03T02:27:07.165Z,98334.66
2023-05-03T02:29:34.337Z,98342.34
2023-05-03T02:32:01.200Z,98341.53
2023-05-03T02:34:28.256Z,98350.75
2023-05-03T02:36:55.192Z,98348.41
2023-05-03T02:39:22.061Z,98350.06
2023-05-03T02:41:48.850Z,98348.06
2023-05-03T02:44:15.775Z,98358.41
2023-05-03T02:46:42.854Z,98342.81
2023-05-03T02:49:10.137Z,98349.38
2023-05-03T02:51:37.256Z,98345.84
2023-05-03T02:54:04.160Z,98349.63
2023-05-03T02:56:30.994Z,98355.06
2023-05-03T02:58:57.802Z,98343.88
2023-05-03T03:01:24.693Z,98344.22
2023-05-03T03:03:51.645Z,98354.75
2023-05-03T03:06:18.600Z,98359.09
2023-05-03T03:08:45.488Z,98350.03
2023-05-03T03:11:12.396Z,98354.19
2023-05-03T03:13:41.365Z,98350.94
2023-05-03T03:16:08.567Z,98349.19
2023-05-03T03:18:36.099Z,98350.94
2023-05-03T03:21:03.653Z,98356.91
2023-05-03T03:23:30.810Z,98352.56
2023-05-03T03:25:57.908Z,98351.03
2023-05-03T03:28:24.849Z,98350.31
2023-05-03T03:30:51.715Z,98356.28
2023-05-03T03:33:18.708Z,98350.56
2023-05-03T03:35:45.863Z,98351.03
2023-05-03T03:38:12.758Z,98356.69
2023-05-03T03:40:39.933Z,98355.97
2023-05-03T03:43:06.733Z,98356.44
2023-05-03T03:45:33.554Z,98355.97
2023-05-03T03:48:00.773Z,98363.41
2023-05-03T03:50:27.701Z,98359.06
2023-05-03T03:52:54.541Z,98355.31
2023-05-03T03:55:21.518Z,98363.53
2023-05-03T03:57:48.405Z,98358.47
2023-05-03T04:00:15.406Z,98360.63
2023-05-03T04:02:42.464Z,98363.13
2023-05-03T04:05:09.607Z,98362.69
2023-05-03T04:07:36.424Z,98372.16
2023-05-03T04:10:03.581Z,98368.22
2023-05-03T04:12:30.660Z,98371.59
2023-05-03T04:14:57.587Z,98370.53
2023-05-03T04:17:24.485Z,98377.28
2023-05-03T04:19:52.519Z,98377.03
2023-05-03T04:22:19.403Z,98377.91
2023-05-03T04:24:46.222Z,98373.78
2023-05-03T04:27:14.815Z,98373.81
2023-05-03T04:29:41.698Z,98368.97
2023-05-03T04:32:08.528Z,98371.97
2023-05-03T04:34:35.392Z,98367.25
2023-05-03T04:37:02.276Z,98360.75
2023-05-03T04:39:29.112Z,98357.53
2023-05-03T04:41:56.668Z,98366.75
2023-05-03T04:44:23.578Z,98375.56
2023-05-03T04:46:51.228Z,98384.00
2023-05-03T04:49:18.302Z,98390.19
2023-05-03T04:51:45.171Z,98392.91
2023-05-03T04:54:12.009Z,98395.31
2023-05-03T04:56:38.865Z,98390.88
2023-05-03T04:59:07.096Z,98395.56
2023-05-03T05:01:33.962Z,98404.12
2023-05-03T05:04:01.146Z,98403.53
2023-05-03T05:06:28.149Z,98402.38
2023-05-03T05:08:54.959Z,98405.16
2023-05-03T05:11:22.435Z,98409.63
2023-05-03T05:13:49.334Z,98411.41
2023-05-03T05:16:16.541Z,98422.09
2023-05-03T05:18:43.913Z,98422.09
2023-05-03T05:21:10.744Z,98427.12
2023-05-03T05:23:37.690Z,98433.25
2023-05-03T05:26:04.900Z,98440.06
2023-05-03T05:28:32.507Z,98436.97
2023-05-03T05:30:59.417Z,98435.88
2023-05-03T05:33:26.354Z,98441.56
2023-05-03T05:35:53.286Z,98443.50
2023-05-03T05:38:20.160Z,98432.75
2023-05-03T05:40:47.116Z,98436.34
2023-05-03T05:43:13.952Z,98427.78
2023-05-03T05:45:40.842Z,98440.63
2023-05-03T05:48:08.427Z,98433.09
2023-05-03T05:50:35.763Z,98429.81
2023-05-03T05:53:02.620Z,98441.75
2023-05-03T05:55:29.725Z,98437.78
2023-05-03T05:57:56.641Z,98461.72
2023-05-03T06:00:24.509Z,98456.72
2023-05-03T06:02:51.753Z,98463.50
2023-05-03T06:05:19.179Z,98470.78
2023-05-03T06:07:46.122Z,98464.03
2023-05-03T06:10:13.089Z,98472.84
2023-05-03T06:12:39.946Z,98478.78
2023-05-03T06:15:07.948Z,98472.94
2023-05-03T06:17:35.934Z,98477.22
2023-05-03T06:20:05.056Z,98483.84
2023-05-03T06:22:32.242Z,98485.31
2023-05-03T06:24:59.096Z,98494.22
2023-05-03T06:27:26.002Z,98489.09
2023-05-03T06:29:53.870Z,98490.19
2023-05-03T06:32:22.095Z,98487.72
2023-05-03T06:34:50.082Z,98487.31
2023-05-03T06:37:17.641Z,98496.91
2023-05-03T06:39:44.474Z,98492.94
2023-05-03T06:42:11.458Z,98484.06
2023-05-03T06:44:38.353Z,98491.44
2023-05-03T06:47:05.325Z,98488.91
2023-05-03T06:49:32.995Z,98486.69
2023-05-03T06:51:59.841Z,98483.50
2023-05-03T06:54:26.701Z,98486.56
2023-05-03T06:56:53.544Z,98488.06
2023-05-03T06:59:20.436Z,98493.34
2023-05-03T07:01:47.393Z,98502.34
2023-05-03T07:04:14.688Z,98498.06
2023-05-03T07:06:55.482Z,98502.16
2023-05-03T07:09:32.046Z,98502.13
2023-05-03T07:12:09.078Z,98495.25
2023-05-03T07:14:36.018Z,98505.06
2023-05-03T07:17:02.882Z,98505.19
2023-05-03T07:19:30.324Z,98512.78
2023-05-03T07:21:57.174Z,98513.97
2023-05-03T07:24:25.920Z,98515.84
2023-05-03T07:26:55.872Z,98514.19
2023-05-03T07:29:22.718Z,98516.75
2023-05-03T07:31:51.414Z,98511.31
2023-05-03T07:34:19.717Z,98519.53
2023-05-03T07:36:46.680Z,98517.97
2023-05-03T07:39:13.565Z,98517.75
2023-05-03T07:41:40.613Z,98517.56
2023-05-03T07:44:07.903Z,98510.97
2023-05-03T07:46:35.552Z,98516.50
2023-05-03T07:49:06.434Z,98513.81
2023-05-03T07:51:36.950Z,98507.72
2023-05-03T07:54:04.364Z,98507.34
2023-05-03T07:56:31.626Z,98512.66
2023-05-03T07:59:08.103Z,98508.00
2023-05-03T08:01:36.810Z,98514.34
2023-05-03T08:04:04.800Z,98517.91
2023-05-03T08:06:33.032Z,98512.53
2023-05-03T08:08:59.933Z,98519.66
2023-05-03T08:11:30.136Z,98519.94
2023-05-03T08:13:57.141Z,98528.13
2023-05-03T08:16:24.218Z,98529.94
2023-05-03T08:18:51.856Z,98526.94
2023-05-03T08:21:19.417Z,98524.69
2023-05-03T08:23:46.552Z,98523.91
2023-05-03T08:26:14.395Z,98526.28
2023-05-03T08:28:41.649Z,98535.50
2023-05-03T08:31:08.994Z,98534.03
2023-05-03T08:33:36.035Z,98527.41
2023-05-03T08:36:03.287Z,98525.44
2023-05-03T08:38:30.448Z,98534.06
2023-05-03T08:40:59.026Z,98530.78
2023-05-03T08:43:28.973Z,98532.19
2023-05-03T08:45:56.039Z,98536.22
2023-05-03T08:48:23.560Z,98538.72
2023-05-03T08:50:52.267Z,98536.41
2023-05-03T08:53:19.137Z,98530.81
2023-05-03T08:55:46.054Z,98541.19
2023-05-03T08:58:13.410Z,98541.66
2023-05-03T09:00:45.000Z,98551.66
2023-05-03T09:03:12.388Z,98547.78
2023-05-03T09:05:40.700Z,98551.31
2023-05-03T09:08:11.950Z,98551.13
2023-05-03T09:10:40.431Z,98549.94
2023-05-03T09:13:08.662Z,98554.16
2023-05-03T09:15:36.181Z,98553.03
2023-05-03T09:18:21.420Z,98557.62
2023-05-03T09:20:52.831Z,98560.37
2023-05-03T09:23:26.255Z,98559.47
2023-05-03T09:25:53.261Z,98560.31
2023-05-03T09:28:20.890Z,98562.31
2023-05-03T09:30:48.909Z,98556.31
2023-05-03T09:33:23.142Z,98552.50
2023-05-03T09:36:11.143Z,98554.84
2023-05-03T09:38:38.072Z,98554.69
2023-05-03T09:41:08.200Z,98555.97
2023-05-03T09:43:37.824Z,98554.91
2023-05-03T09:46:11.465Z,98559.31
2023-05-03T09:48:39.194Z,98555.81
2023-05-03T09:51:06.763Z,98563.13
2023-05-03T09:53:35.093Z,98556.88
2023-05-03T09:56:09.173Z,98551.78
2023-05-03T09:58:36.574Z,98559.87
2023-05-03T10:01:03.469Z,98557.53
2023-05-03T10:03:41.482Z,98556.69
2023-05-03T10:06:28.986Z,98562.44
2023-05-03T10:09:06.002Z,98558.38
2023-05-03T10:11:35.359Z,98556.34
2023-05-03T10:14:03.840Z,98560.72
2023-05-03T10:16:34.433Z,98556.84
2023-05-03T10:19:33.786Z,98554.66
2023-05-03T10:22:05.921Z,98558.53
2023-05-03T10:24:35.956Z,98558.31
2023-05-03T10:27:03.556Z,98546.69
2023-05-03T10:29:37.438Z,98552.28
2023-05-03T10:32:05.541Z,98555.94
2023-05-03T10:34:36.253Z,98552.31
2023-05-03T10:37:09.736Z,98550.19
2023-05-03T10:39:37.059Z,98541.12
2023-05-03T10:42:06.294Z,98544.63
2023-05-03T10:44:55.106Z,98542.88
2023-05-03T10:47:25.409Z,98542.91
2023-05-03T10:50:16.663Z,98538.25
2023-05-03T10:52:43.554Z,98547.56
2023-05-03T10:55:18.224Z,98535.38
2023-05-03T10:57:46.972Z,98539.56
2023-05-03T11:00:23.749Z,98537.69
2023-05-03T11:03:25.426Z,98536.00
2023-05-03T11:05:52.472Z,98549.69
2023-05-03T11:08:21.344Z,98547.28
2023-05-03T11:10:51.505Z,98542.19
2023-05-03T11:13:18.367Z,98540.50
2023-05-03T11:15:47.647Z,98543.78
2023-05-03T11:18:15.515Z,98551.56
2023-05-03T11:20:42.438Z,98553.97
2023-05-03T11:23:09.496Z,98550.44
2023-05-03T11:25:36.387Z,98551.91
2023-05-03T11:28:07.234Z,98553.56
2023-05-03T11:30:35.285Z,98554.34
2023-05-03T11:33:02.282Z,98553.44
2023-05-03T11:35:30.194Z,98547.53
2023-05-03T11:37:57.528Z,98550.78
2023-05-03T11:40:24.759Z,98557.62
2023-05-03T11:42:59.088Z,98546.72
2023-05-03T11:45:44.296Z,98552.03
2023-05-03T11:48:13.018Z,98548.28
2023-05-03T11:50:47.109Z,98550.06
2023-05-03T11:53:17.792Z,98547.53
2023-05-03T11:55:48.171Z,98531.06
2023-05-03T11:58:21.717Z,98538.06
2023-05-03T12:00:50.332Z,98553.69
2023-05-03T12:03:19.055Z,98554.56
2023-05-03T12:05:47.942Z,98553.00
2023-05-03T12:08:20.949Z,98549.88
2023-05-03T12:10:53.784Z,98553.44
2023-05-03T12:13:39.789Z,98550.72
2023-05-03T12:16:14.297Z,98544.91
2023-05-03T12:18:51.137Z,98547.41
2023-05-03T12:23:55.978Z,98544.53
2023-05-03T12:26:23.520Z,98551.50
2023-05-03T12:28:50.515Z,98550.00
2023-05-03T12:31:22.966Z,98544.38
2023-05-03T12:34:12.189Z,98545.56
2023-05-03T12:36:38.617Z,98541.62
2023-05-03T12:39:09.233Z,98546.78
2023-05-03T12:44:10.224Z,98558.09
2023-05-03T12:46:38.579Z,98549.12
2023-05-03T12:49:08.033Z,98546.91
2023-05-03T12:51:35.501Z,98540.25
2023-05-03T12:54:04.054Z,98533.03
2023-05-03T12:56:33.293Z,98535.75
2023-05-03T13:04:36.412Z,98526.38
2023-05-03T13:06:47.435Z,98522.09
2023-05-03T13:09:20.480Z,98522.78
2023-05-03T13:11:50.198Z,98528.56
2023-05-03T13:14:17.188Z,98523.91
2023-05-03T13:16:45.697Z,98514.84
2023-05-03T13:19:16.442Z,98516.25
2023-05-03T13:21:43.390Z,98525.06
2023-05-03T13:24:10.301Z,98514.84
2023-05-03T13:26:37.160Z,98521.13
2023-05-03T13:29:05.153Z,98512.84
2023-05-03T13:31:31.973Z,98507.97
2023-05-03T13:33:58.837Z,98507.28
2023-05-03T13:36:27.090Z,98508.25
2023-05-03T13:38:54.309Z,98501.91
2023-05-03T13:41:21.864Z,98498.19
2023-05-03T13:43:48.779Z,98494.59
2023-05-03T13:46:15.712Z,98491.47
2023-05-03T13:48:43.424Z,98487.03
2023-05-03T13:51:11.496Z,98488.59
2023-05-03T13:53:41.238Z,98498.72
2023-05-03T13:56:08.315Z,98498.09
2023-05-03T13:58:39.887Z,98484.03
2023-05-03T14:01:07.129Z,98488.78
2023-05-03T14:03:34.249Z,98485.34
2023-05-03T14:06:01.461Z,98478.81
2023-05-03T14:08:28.518Z,98491.41
2023-05-03T14:10:55.398Z,98485.38
2023-05-03T14:13:22.377Z,98486.25
2023-05-03T14:15:49.365Z,98484.47
2023-05-03T14:18:16.446Z,98482.13
2023-05-03T14:20:43.511Z,98472.00
2023-05-03T14:23:10.340Z,98480.53
2023-05-03T14:25:37.237Z,98474.28
2023-05-03T14:28:05.434Z,98484.28
2023-05-03T14:30:33.347Z,98477.19
2023-05-03T14:33:00.495Z,98470.75
2023-05-03T14:35:27.376Z,98476.50
2023-05-03T14:37:54.697Z,98470.41
2023-05-03T14:40:22.009Z,98477.91
2023-05-03T14:42:49.028Z,98482.28
2023-05-03T14:45:16.098Z,98480.06
2023-05-03T14:47:43.053Z,98481.75
2023-05-03T14:50:10.380Z,98479.88
2023-05-03T14:52:38.115Z,98475.97
2023-05-03T14:55:08.640Z,98477.34
2023-05-03T14:57:36.511Z,98474.38
2023-05-03T15:00:05.074Z,98463.06
2023-05-03T15:02:32.281Z,98482.03
2023-05-03T15:04:59.255Z,98474.75
2023-05-03T15:07:26.085Z,98478.22
2023-05-03T15:09:52.924Z,98475.34
2023-05-03T15:12:19.784Z,98476.09
2023-05-03T15:14:46.932Z,98474.03
2023-05-03T15:17:13.971Z,98485.63
2023-05-03T15:19:42.230Z,98476.19
2023-05-03T15:22:09.126Z,98483.72
2023-05-03T15:24:35.988Z,98492.31
2023-05-03T15:27:03.101Z,98481.06
2023-05-03T15:29:29.957Z,98493.78
2023-05-03T15:31:56.814Z,98493.66
2023-05-03T15:34:23.674Z,98486.66
2023-05-03T15:36:50.522Z,98493.72
2023-05-03T15:39:17.413Z,98495.78
2023-05-03T15:41:45.812Z,98491.19
2023-05-03T15:44:14.995Z,98496.41
2023-05-03T15:46:43.115Z,98493.03
2023-05-03T15:49:11.994Z,98498.06
2023-05-03T15:51:39.403Z,98492.75
2023-05-03T15:54:06.326Z,98504.16
2023-05-03T15:56:33.325Z,98506.69
2023-05-03T15:59:00.191Z,98492.94
2023-05-03T16:01:27.099Z,98503.31
2023-05-03T16:03:54.046Z,98499.37
2023-05-03T16:06:20.962Z,98504.22
2023-05-03T16:08:47.821Z,98499.09
2023-05-03T16:11:15.252Z,98507.72
2023-05-03T16:13:42.075Z,98503.47
2023-05-03T16:16:08.985Z,98505.66
2023-05-03T16:18:37.008Z,98506.09
2023-05-03T16:21:03.921Z,98508.06
2023-05-03T16:23:30.839Z,98511.78
2023-05-03T16:25:57.906Z,98503.72
2023-05-03T16:28:24.878Z,98515.94
2023-05-03T16:30:52.035Z,98513.66
2023-05-03T16:33:19.616Z,98504.94
2023-05-03T16:35:46.539Z,98500.41
2023-05-03T16:38:13.441Z,98508.25
2023-05-03T16:40:40.776Z,98492.41
2023-05-03T16:43:07.807Z,98508.28
2023-05-03T16:45:34.834Z,98509.59
2023-05-03T16:48:04.765Z,98503.91
2023-05-03T16:50:33.080Z,98506.06
2023-05-03T16:52:59.953Z,98513.13
2023-05-03T16:55:26.833Z,98503.78
2023-05-03T16:57:53.723Z,98503.66
2023-05-03T17:00:21.002Z,98510.44
2023-05-03T17:02:48.039Z,98516.50
2023-05-03T17:05:15.195Z,98508.59
2023-05-03T17:07:42.204Z,98510.00
2023-05-03T17:10:09.629Z,98514.13
2023-05-03T17:12:36.718Z,98511.59
2023-05-03T17:15:04.146Z,98513.09
2023-05-03T17:17:33.717Z,98509.09
2023-05-03T17:20:00.653Z,98514.94
2023-05-03T17:22:28.145Z,98519.56
2023-05-03T17:24:58.072Z,98516.53
2023-05-03T17:27:25.427Z,98517.44
2023-05-03T17:29:52.399Z,98535.72
2023-05-03T17:32:19.270Z,98532.78
2023-05-03T17:34:46.105Z,98529.00
2023-05-03T17:37:13.004Z,98537.69
2023-05-03T17:39:40.028Z,98534.78
2023-05-03T17:42:06.971Z,98531.34
2023-05-03T17:44:34.440Z,98540.34
2023-05-03T17:47:01.364Z,98541.56
2023-05-03T17:49:28.207Z,98534.69
2023-05-03T17:51:55.074Z,98537.19
2023-05-03T17:54:21.912Z,98536.81
2023-05-03T17:56:48.833Z,98542.06
2023-05-03T17:59:16.657Z,98540.66
2023-05-03T18:01:43.526Z,98536.44
2023-05-03T18:04:10.414Z,98538.75
2023-05-03T18:06:37.245Z,98537.37
2023-05-03T18:09:04.658Z,98535.81
2023-05-03T18:11:31.498Z,98536.03
2023-05-03T18:13:58.366Z,98542.16
2023-05-03T18:16:25.273Z,98543.03
2023-05-03T18:18:53.194Z,98541.75
2023-05-03T18:21:22.157Z,98544.06
2023-05-03T18:23:49.001Z,98547.31
2023-05-03T18:26:15.906Z,98550.22
2023-05-03T18:28:42.880Z,98557.56
2023-05-03T18:31:11.746Z,98557.16
2023-05-03T18:33:40.273Z,98565.97
2023-05-03T18:36:11.952Z,98565.91
2023-05-03T18:38:39.557Z,98569.56
2023-05-03T18:41:15.069Z,98576.16
2023-05-03T18:43:43.074Z,98568.78
2023-05-03T18:46:10.693Z,98563.56
2023-05-03T18:48:37.686Z,98573.34
2023-05-03T18:51:04.876Z,98571.00
2023-05-03T18:53:34.508Z,98569.41
2023-05-03T18:56:04.902Z,98570.41
2023-05-03T18:58:32.267Z,98565.72
2023-05-03T19:01:00.615Z,98569.50
2023-05-03T19:03:29.708Z,98572.03
2023-05-03T19:06:10.387Z,98580.06
2023-05-03T19:08:37.242Z,98578.25
2023-05-03T19:11:08.674Z,98572.62
2023-05-03T19:13:36.124Z,98579.81
2023-05-03T19:16:03.965Z,98584.19
2023-05-03T19:18:31.783Z,98586.75
2023-05-03T19:20:58.734Z,98590.78
2023-05-03T19:23:25.662Z,98608.69
2023-05-03T19:25:52.544Z,98618.25
2023-05-03T19:28:19.531Z,98634.13
2023-05-03T19:30:49.476Z,98644.56
2023-05-03T19:33:21.159Z,98642.31
2023-05-03T19:35:48.260Z,98633.09
2023-05-03T19:38:15.850Z,98636.47
2023-05-03T19:40:55.719Z,98628.09
2023-05-03T19:43:22.565Z,98637.06
2023-05-03T19:45:49.430Z,98639.88
2023-05-03T19:48:16.883Z,98640.47
2023-05-03T19:50:44.600Z,98650.97
2023-05-03T19:53:11.549Z,98654.75
2023-05-03T19:55:38.428Z,98642.91
2023-05-03T19:58:05.858Z,98646.19
2023-05-03T20:00:32.750Z,98648.97
2023-05-03T20:02:59.667Z,98649.78
2023-05-03T20:05:26.687Z,98649.28
2023-05-03T20:07:53.567Z,98652.16
2023-05-03T20:10:20.536Z,98651.53
2023-05-03T20:12:47.447Z,98647.19
2023-05-03T20:15:14.359Z,98649.50
2023-05-03T20:17:41.276Z,98656.78
2023-05-03T20:20:10.930Z,98660.25
2023-05-03T20:22:37.719Z,98656.06
2023-05-03T20:25:05.013Z,98657.19
2023-05-03T20:27:31.934Z,98659.53
2023-05-03T20:29:58.800Z,98660.81
2023-05-03T20:32:26.176Z,98659.25
2023-05-03T20:34:53.372Z,98652.47
2023-05-03T20:37:20.246Z,98653.22
2023-05-03T20:39:47.629Z,98648.59
2023-05-03T20:42:14.516Z,98655.69
2023-05-03T20:44:41.395Z,98655.75
2023-05-03T20:47:08.234Z,98658.00
2023-05-03T20:49:35.114Z,98658.03
2023-05-03T20:52:01.954Z,98658.66
2023-05-03T20:54:28.810Z,98650.59
2023-05-03T20:56:56.093Z,98657.53
2023-05-03T20:59:22.957Z,98650.97
2023-05-03T21:01:49.916Z,98647.69
2023-05-03T21:04:16.825Z,98652.31
2023-05-03T21:06:45.213Z,98654.47
2023-05-03T21:09:12.541Z,98641.63
2023-05-03T21:11:39.504Z,98641.31
2023-05-03T21:14:06.697Z,98646.38
2023-05-03T21:16:33.613Z,98642.00
2023-05-03T21:19:01.609Z,98644.22
2023-05-03T21:21:28.680Z,98638.81
2023-05-03T21:23:55.513Z,98643.41
2023-05-03T21:26:22.503Z,98644.97
2023-05-03T21:28:49.856Z,98643.69
2023-05-03T21:31:16.764Z,98649.78
2023-05-03T21:33:43.663Z,98655.41
2023-05-03T21:36:10.484Z,98654.78
2023-05-03T21:38:37.445Z,98646.81
2023-05-03T21:41:05.063Z,98649.16
2023-05-03T21:43:32.752Z,98649.75
2023-05-03T21:45:59.644Z,98652.41
2023-05-03T21:48:26.592Z,98643.28
2023-05-03T21:50:53.795Z,98641.63
2023-05-03T21:53:20.854Z,98650.59
2023-05-03T21:55:47.771Z,98642.28
2023-05-03T21:58:14.859Z,98641.09
2023-05-03T22:00:42.386Z,98635.50
2023-05-03T22:03:09.344Z,98637.06
2023-05-03T22:05:39.685Z,98633.28
2023-05-03T22:08:06.736Z,98634.66
2023-05-03T22:10:33.564Z,98633.38
2023-05-03T22:13:00.462Z,98644.37
2023-05-03T22:15:27.585Z,98639.69
2023-05-03T22:17:54.531Z,98638.50
2023-05-03T22:20:21.456Z,98631.94
2023-05-03T22:22:48.429Z,98626.28
2023-05-03T22:25:25.837Z,98630.78
2023-05-03T22:27:53.365Z,98631.72
2023-05-03T22:30:20.526Z,98625.56
2023-05-03T22:32:47.885Z,98617.25
2023-05-03T22:35:15.153Z,98617.66
2023-05-03T22:37:42.272Z,98620.53
2023-05-03T22:40:09.644Z,98617.69
2023-05-03T22:42:36.580Z,98618.16
2023-05-03T22:45:03.583Z,98615.13
2023-05-03T22:47:30.418Z,98611.41
2023-05-03T22:49:57.530Z,98607.53
2023-05-03T22:52:24.372Z,98605.03
2023-05-03T22:54:56.248Z,98599.16
2023-05-03T22:57:23.130Z,98594.50
2023-05-03T22:59:50.025Z,98590.06
2023-05-03T23:02:17.712Z,98594.81
2023-05-03T23:04:44.646Z,98588.16
2023-05-03T23:07:11.531Z,98587.75
2023-05-03T23:09:38.392Z,98578.59
2023-05-03T23:12:05.465Z,98576.13
2023-05-03T23:14:32.330Z,98571.41
2023-05-03T23:16:59.212Z,98563.78
2023-05-03T23:19:26.531Z,98563.53
2023-05-03T23:21:53.381Z,98561.91
2023-05-03T23:24:20.356Z,98553.44
2023-05-03T23:26:47.211Z,98558.25
2023-05-03T23:29:14.537Z,98554.78
2023-05-03T23:31:41.832Z,98551.31
2023-05-03T23:34:09.189Z,98555.38
2023-05-03T23:36:36.135Z,98552.87
2023-05-03T23:39:03.970Z,98547.59
2023-05-03T23:41:30.969Z,98547.69
2023-05-03T23:43:57.886Z,98544.91
2023-05-03T23:46:24.794Z,98536.16
2023-05-03T23:48:51.728Z,98536.53
2023-05-03T23:51:18.552Z,98539.78
2023-05-03T23:53:45.404Z,98534.59
2023-05-03T23:56:12.486Z,98535.75
2023-05-03T23:58:39.407Z,98541.78
